createdAt,value
2018-06-21T00:01:30.799Z,49.16
2018-06-21T00:03:59.777Z,48.70
2018-06-21T00:06:28.808Z,50.11
2018-06-21T00:08:57.802Z,49.78
2018-06-21T00:11:26.826Z,50.96
2018-06-21T00:13:55.815Z,50.68
2018-06-21T00:16:24.838Z,51.14
2018-06-21T00:18:54.043Z,50.79
2018-06-21T00:21:23.073Z,51.42
2018-06-21T00:23:52.037Z,51.33
2018-06-21T00:26:21.045Z,52.37
2018-06-21T00:28:50.026Z,51.78
2018-06-21T00:31:19.058Z,51.24
2018-06-21T00:33:48.122Z,51.94
2018-06-21T00:36:17.470Z,51.63
2018-06-21T00:38:46.467Z,52.02
2018-06-21T00:41:15.439Z,51.87
2018-06-21T00:43:44.454Z,52.23
2018-06-21T00:46:13.451Z,51.89
2018-06-21T00:48:42.481Z,52.13
2018-06-21T00:51:11.462Z,51.85
2018-06-21T00:53:40.933Z,51.83
2018-06-21T00:56:19.810Z,52.38
2018-06-21T00:58:49.532Z,52.27
2018-06-21T01:01:19.070Z,52.90
2018-06-21T01:03:48.531Z,53.24
2018-06-21T01:06:17.562Z,52.79
2018-06-21T01:08:46.593Z,52.70
2018-06-21T01:11:15.577Z,51.66
2018-06-21T01:13:44.626Z,51.89
2018-06-21T01:16:13.603Z,51.84
2018-06-21T01:18:43.507Z,51.67
2018-06-21T01:21:12.477Z,51.53
2018-06-21T01:23:41.595Z,51.94
2018-06-21T01:26:10.546Z,52.19
2018-06-21T01:28:39.562Z,52.29
2018-06-21T01:31:08.543Z,52.50
2018-06-21T01:33:37.562Z,53.37
2018-06-21T01:36:06.550Z,53.05
2018-06-21T01:38:35.552Z,54.87
2018-06-21T01:41:04.510Z,53.68
2018-06-21T01:43:33.498Z,53.15
2018-06-21T01:46:02.445Z,53.26
2018-06-21T01:48:31.428Z,52.91
2018-06-21T01:51:00.463Z,53.24
2018-06-21T01:53:29.458Z,53.59
2018-06-21T01:55:58.453Z,53.28
2018-06-21T01:58:27.405Z,54.04
2018-06-21T02:00:56.394Z,53.37
2018-06-21T02:03:25.349Z,53.25
2018-06-21T02:05:54.382Z,53.90
2018-06-21T02:08:23.358Z,53.17
2018-06-21T02:10:52.382Z,53.62
2018-06-21T02:13:21.336Z,53.52
2018-06-21T02:15:50.349Z,54.04
2018-06-21T02:18:19.311Z,53.17
2018-06-21T02:23:28.103Z,52.65
2018-06-21T02:25:57.098Z,52.08
2018-06-21T02:28:26.056Z,52.31
2018-06-21T02:30:55.094Z,53.24
2018-06-21T02:33:24.064Z,53.27
2018-06-21T02:35:53.095Z,53.16
2018-06-21T02:38:22.062Z,53.45
2018-06-21T02:40:51.066Z,53.88
2018-06-21T02:43:20.033Z,52.67
2018-06-21T02:45:49.028Z,52.68
2018-06-21T02:48:17.974Z,52.51
2018-06-21T02:50:47.010Z,52.81
2018-06-21T02:53:15.987Z,52.64
2018-06-21T02:55:45.022Z,52.89
2018-06-21T02:58:13.964Z,53.21
2018-06-21T03:00:42.963Z,53.27
2018-06-21T03:03:11.987Z,54.12
2018-06-21T03:05:40.980Z,53.61
2018-06-21T03:08:09.978Z,53.06
2018-06-21T03:10:38.930Z,53.24
2018-06-21T03:13:07.931Z,52.65
2018-06-21T03:15:36.878Z,52.82
2018-06-21T03:18:05.894Z,53.61
2018-06-21T03:20:34.834Z,58.02
2018-06-21T03:23:03.824Z,58.48
2018-06-21T03:25:32.765Z,58.80
2018-06-21T03:28:01.751Z,58.28
2018-06-21T03:30:30.757Z,58.45
2018-06-21T03:32:59.810Z,58.00
2018-06-21T03:35:28.784Z,58.25
2018-06-21T03:37:57.800Z,57.27
2018-06-21T03:40:26.749Z,57.18
2018-06-21T03:42:55.818Z,56.69
2018-06-21T03:45:24.790Z,57.38
2018-06-21T03:47:53.971Z,57.17
2018-06-21T03:50:23.102Z,57.89
2018-06-21T03:52:52.192Z,58.12
2018-06-21T03:55:21.320Z,57.53
2018-06-21T03:57:50.463Z,57.24
2018-06-21T04:00:19.523Z,56.89
2018-06-21T04:02:48.710Z,57.29
2018-06-21T04:05:17.832Z,56.92
2018-06-21T04:07:46.923Z,56.67
2018-06-21T04:10:16.046Z,56.48
2018-06-21T04:12:45.197Z,56.88
2018-06-21T04:15:14.422Z,56.25
2018-06-21T04:17:43.509Z,56.36
2018-06-21T04:20:12.692Z,58.51
2018-06-21T04:22:41.792Z,57.54
2018-06-21T04:25:10.930Z,56.11
2018-06-21T04:27:39.972Z,54.86
2018-06-21T04:30:09.125Z,54.92
2018-06-21T04:32:38.276Z,54.10
2018-06-21T04:35:07.414Z,54.30
2018-06-21T04:37:36.354Z,52.88
2018-06-21T04:40:05.395Z,52.35
2018-06-21T04:42:34.332Z,50.50
2018-06-21T04:45:03.333Z,49.17
2018-06-21T04:47:32.342Z,48.61
2018-06-21T04:50:01.344Z,47.90
2018-06-21T04:52:30.308Z,49.36
2018-06-21T04:54:59.325Z,48.59
2018-06-21T04:57:28.333Z,47.02
2018-06-21T04:59:57.341Z,45.52
2018-06-21T05:02:26.305Z,44.70
2018-06-21T05:04:55.298Z,44.16
2018-06-21T05:07:24.335Z,44.05
2018-06-21T05:09:53.377Z,43.40
2018-06-21T05:12:23.225Z,42.33
2018-06-21T05:14:53.534Z,41.50
2018-06-21T05:17:22.490Z,41.37
2018-06-21T05:19:51.435Z,40.84
2018-06-21T05:22:20.445Z,41.16
2018-06-21T05:24:49.443Z,40.12
2018-06-21T05:27:18.473Z,38.69
2018-06-21T05:29:47.425Z,35.54
2018-06-21T05:32:16.428Z,34.45
2018-06-21T05:34:45.397Z,31.22
2018-06-21T05:37:14.423Z,32.26
2018-06-21T05:39:43.379Z,29.91
2018-06-21T05:42:12.341Z,33.51
2018-06-21T05:44:41.293Z,36.64
2018-06-21T05:47:10.294Z,36.89
2018-06-21T05:49:39.243Z,36.22
2018-06-21T05:52:08.244Z,33.24
2018-06-21T05:54:37.218Z,31.73
2018-06-21T05:57:06.203Z,29.83
2018-06-21T05:59:35.165Z,27.17
2018-06-21T06:02:04.231Z,24.24
2018-06-21T06:04:33.174Z,22.63
2018-06-21T06:07:02.447Z,24.00
2018-06-21T06:09:31.813Z,24.13
2018-06-21T06:12:01.159Z,23.82
2018-06-21T06:14:30.532Z,24.60
2018-06-21T06:16:59.894Z,25.69
2018-06-21T06:19:29.250Z,27.92
2018-06-21T06:21:58.523Z,28.03
2018-06-21T06:24:27.774Z,25.45
2018-06-21T06:26:57.040Z,23.13
2018-06-21T06:29:26.050Z,21.47
2018-06-21T06:31:55.325Z,21.32
2018-06-21T06:34:24.357Z,22.62
2018-06-21T06:36:53.343Z,24.13
2018-06-21T06:39:22.378Z,21.76
2018-06-21T06:41:52.152Z,20.03
2018-06-21T06:44:21.158Z,20.36
2018-06-21T06:46:50.140Z,22.64
2018-06-21T06:49:19.150Z,22.47
2018-06-21T06:51:48.116Z,23.48
2018-06-21T06:54:17.182Z,25.56
2018-06-21T06:56:46.127Z,28.58
2018-06-21T06:59:15.150Z,33.33
2018-06-21T07:01:44.115Z,30.69
2018-06-21T07:04:13.114Z,32.45
2018-06-21T07:06:42.053Z,33.11
2018-06-21T07:09:11.230Z,32.26
2018-06-21T07:11:40.173Z,32.08
2018-06-21T07:14:09.263Z,31.69
2018-06-21T07:16:38.185Z,30.74
2018-06-21T07:19:07.303Z,30.15
2018-06-21T07:21:38.913Z,30.71
2018-06-21T07:24:08.581Z,30.99
2018-06-21T07:26:38.436Z,29.89
2018-06-21T07:29:08.041Z,31.44
2018-06-21T07:31:37.208Z,31.57
2018-06-21T07:34:06.237Z,31.53
2018-06-21T07:36:35.276Z,30.49
2018-06-21T07:39:04.922Z,32.16
2018-06-21T07:41:33.885Z,30.73
2018-06-21T07:44:02.819Z,30.80
2018-06-21T07:46:32.067Z,30.88
2018-06-21T07:49:01.082Z,31.10
2018-06-21T07:51:30.070Z,30.71
2018-06-21T07:53:59.016Z,30.70
2018-06-21T07:56:28.047Z,30.92
2018-06-21T07:58:56.986Z,32.24
2018-06-21T08:01:25.997Z,31.84
2018-06-21T08:03:54.959Z,31.82
2018-06-21T08:06:23.930Z,31.27
2018-06-21T08:08:52.895Z,31.96
2018-06-21T08:11:21.923Z,31.19
2018-06-21T08:13:50.940Z,31.55
2018-06-21T08:16:19.942Z,31.60
2018-06-21T08:18:48.929Z,32.06
2018-06-21T08:21:17.954Z,32.86
2018-06-21T08:23:46.918Z,31.88
2018-06-21T08:26:15.924Z,32.17
2018-06-21T08:28:44.871Z,31.72
2018-06-21T08:31:13.878Z,32.00
2018-06-21T08:33:43.095Z,32.11
2018-06-21T08:36:12.268Z,31.54
2018-06-21T08:38:41.243Z,32.86
2018-06-21T08:41:10.221Z,32.14
2018-06-21T08:43:39.233Z,32.53
2018-06-21T08:46:08.798Z,32.16
2018-06-21T08:48:38.143Z,32.38
2018-06-21T08:51:07.219Z,31.61
2018-06-21T08:53:36.204Z,32.08
2018-06-21T08:56:05.222Z,32.10
2018-06-21T08:58:34.207Z,32.54
2018-06-21T09:01:03.162Z,33.12
2018-06-21T09:03:32.164Z,32.37
2018-06-21T09:06:01.370Z,32.49
2018-06-21T09:08:30.439Z,32.35
2018-06-21T09:10:59.367Z,31.55
2018-06-21T09:13:36.281Z,31.02
2018-06-21T09:16:06.330Z,31.65
2018-06-21T09:18:35.311Z,30.28
2018-06-21T09:21:04.322Z,30.89
2018-06-21T09:23:33.319Z,31.10
2018-06-21T09:26:02.612Z,31.15
2018-06-21T09:28:31.678Z,29.72
2018-06-21T09:31:00.646Z,29.41
2018-06-21T09:33:29.630Z,31.86
2018-06-21T09:35:58.624Z,31.13
2018-06-21T09:38:32.787Z,33.58
2018-06-21T09:41:06.859Z,35.25
2018-06-21T09:43:50.298Z,36.39
2018-06-21T09:46:14.979Z,39.86
2018-06-21T09:48:49.812Z,40.74
2018-06-21T09:51:18.825Z,40.00
2018-06-21T09:53:47.826Z,41.77
2018-06-21T09:56:16.782Z,42.35
2018-06-21T09:58:45.731Z,43.85
2018-06-21T10:01:14.775Z,44.52
2018-06-21T10:03:43.745Z,43.13
2018-06-21T10:06:12.760Z,42.91
2018-06-21T10:08:41.706Z,42.83
2018-06-21T10:11:10.701Z,42.42
2018-06-21T10:13:39.629Z,41.82
2018-06-21T10:16:08.690Z,42.98
2018-06-21T10:18:37.620Z,42.30
2018-06-21T10:21:06.614Z,41.72
2018-06-21T10:23:35.590Z,42.38
2018-06-21T10:26:04.594Z,42.45
2018-06-21T10:28:33.527Z,42.99
2018-06-21T10:31:02.506Z,45.00
2018-06-21T10:33:31.727Z,45.26
2018-06-21T10:36:00.847Z,46.99
2018-06-21T10:38:29.786Z,45.59
2018-06-21T10:40:58.769Z,48.83
2018-06-21T10:43:27.745Z,48.08
2018-06-21T10:45:56.703Z,46.29
2018-06-21T10:48:25.740Z,46.75
2018-06-21T10:50:54.706Z,43.98
2018-06-21T10:53:23.665Z,40.93
2018-06-21T10:55:52.935Z,37.39
2018-06-21T10:58:21.961Z,38.54
2018-06-21T11:00:50.922Z,36.66
2018-06-21T11:03:20.039Z,38.24
2018-06-21T11:05:48.947Z,37.30
2018-06-21T11:08:17.937Z,35.91
2018-06-21T11:10:46.966Z,35.57
2018-06-21T11:13:15.960Z,35.19
2018-06-21T11:15:44.919Z,38.26
2018-06-21T11:18:13.962Z,37.84
2018-06-21T11:20:43.346Z,36.96
2018-06-21T11:23:12.352Z,35.12
2018-06-21T11:25:41.307Z,33.18
2018-06-21T11:28:10.303Z,32.92
2018-06-21T11:30:39.266Z,32.64
2018-06-21T11:33:08.255Z,31.90
2018-06-21T11:35:37.202Z,30.40
2018-06-21T11:38:06.273Z,29.78
2018-06-21T11:40:35.238Z,29.54
2018-06-21T11:43:04.211Z,31.46
2018-06-21T11:45:33.149Z,32.31
2018-06-21T11:48:02.114Z,32.21
2018-06-21T11:50:31.055Z,31.08
2018-06-21T11:53:00.103Z,32.95
2018-06-21T11:55:29.062Z,32.28
2018-06-21T11:57:58.043Z,30.53
2018-06-21T12:00:27.006Z,28.34
2018-06-21T12:02:55.974Z,27.81
2018-06-21T12:05:24.920Z,27.74
2018-06-21T12:07:53.979Z,30.14
2018-06-21T12:10:22.972Z,28.44
2018-06-21T12:12:51.953Z,27.98
2018-06-21T12:15:20.925Z,27.52
2018-06-21T12:17:49.887Z,27.99
2018-06-21T12:20:18.874Z,29.66
2018-06-21T12:22:47.987Z,25.93
2018-06-21T12:25:17.014Z,27.21
2018-06-21T12:27:46.044Z,24.80
2018-06-21T12:30:15.092Z,24.08
2018-06-21T12:32:44.026Z,24.18
2018-06-21T12:35:13.029Z,24.09
2018-06-21T12:37:41.995Z,25.24
2018-06-21T12:40:11.007Z,23.93
2018-06-21T12:42:39.973Z,23.28
2018-06-21T12:45:09.007Z,22.57
2018-06-21T12:47:38.042Z,23.27
2018-06-21T12:50:07.054Z,20.86
2018-06-21T12:52:36.108Z,21.29
2018-06-21T12:55:05.043Z,20.53
2018-06-21T12:57:33.991Z,20.87
2018-06-21T13:00:02.995Z,20.21
2018-06-21T13:02:31.982Z,21.32
2018-06-21T13:05:00.962Z,22.14
2018-06-21T13:07:29.924Z,22.77
2018-06-21T13:10:09.986Z,21.73
2018-06-21T13:12:51.210Z,21.61
2018-06-21T13:15:20.217Z,21.25
2018-06-21T13:17:49.187Z,22.35
2018-06-21T13:20:18.199Z,22.15
2018-06-21T13:22:47.175Z,23.54
2018-06-21T13:25:16.168Z,23.45
2018-06-21T13:27:45.111Z,24.53
2018-06-21T13:30:14.163Z,24.03
2018-06-21T13:32:43.115Z,23.07
2018-06-21T13:35:12.126Z,22.36
2018-06-21T13:37:41.090Z,23.02
2018-06-21T13:40:10.035Z,23.53
2018-06-21T13:42:39.111Z,23.99
2018-06-21T13:45:08.119Z,23.17
2018-06-21T13:47:37.110Z,22.21
2018-06-21T13:50:06.282Z,23.08
2018-06-21T13:52:35.284Z,22.27
2018-06-21T13:55:04.229Z,21.06
2018-06-21T13:57:33.222Z,20.99
2018-06-21T14:00:02.175Z,20.33
2018-06-21T14:02:31.170Z,20.48
2018-06-21T14:05:00.123Z,19.37
2018-06-21T14:07:29.195Z,19.32
2018-06-21T14:09:58.794Z,18.97
2018-06-21T14:12:28.417Z,19.79
2018-06-21T14:14:57.604Z,19.91
2018-06-21T14:17:26.622Z,20.21
2018-06-21T14:19:55.586Z,20.78
2018-06-21T14:22:24.590Z,19.76
2018-06-21T14:24:53.529Z,20.08
2018-06-21T14:27:22.511Z,19.20
2018-06-21T14:29:51.465Z,19.69
2018-06-21T14:32:20.496Z,18.41
2018-06-21T14:34:49.444Z,17.44
2018-06-21T14:37:18.434Z,16.90
2018-06-21T14:39:47.393Z,18.23
2018-06-21T14:42:16.432Z,16.83
2018-06-21T14:44:45.374Z,15.80
2018-06-21T14:47:14.365Z,15.88
2018-06-21T14:49:43.315Z,18.22
2018-06-21T14:52:12.315Z,18.43
2018-06-21T14:54:41.353Z,18.25
2018-06-21T14:57:10.363Z,18.12
2018-06-21T14:59:39.326Z,18.00
2018-06-21T15:02:08.325Z,18.21
2018-06-21T15:04:37.294Z,17.45
2018-06-21T15:07:06.286Z,17.01
2018-06-21T15:09:35.270Z,17.49
2018-06-21T15:12:04.227Z,17.33
2018-06-21T15:14:33.275Z,17.35
2018-06-21T15:17:02.205Z,18.21
2018-06-21T15:19:31.198Z,18.65
2018-06-21T15:22:00.172Z,17.24
2018-06-21T15:24:29.133Z,17.60
2018-06-21T15:26:58.078Z,16.72
2018-06-21T15:29:27.090Z,17.08
2018-06-21T15:31:56.243Z,16.76
2018-06-21T15:34:25.224Z,16.92
2018-06-21T15:36:54.191Z,16.92
2018-06-21T15:39:24.502Z,17.56
2018-06-21T15:41:53.482Z,17.65
2018-06-21T15:44:22.495Z,17.20
2018-06-21T15:46:51.474Z,17.50
2018-06-21T15:49:20.474Z,17.44
2018-06-21T15:51:49.428Z,16.37
2018-06-21T15:54:18.442Z,17.94
2018-06-21T15:56:47.391Z,17.40
2018-06-21T15:59:16.415Z,18.74
2018-06-21T16:01:45.387Z,19.26
2018-06-21T16:04:14.377Z,20.03
2018-06-21T16:06:43.314Z,19.56
2018-06-21T16:09:12.294Z,20.00
2018-06-21T16:11:41.365Z,20.50
2018-06-21T16:14:10.353Z,19.51
2018-06-21T16:16:39.358Z,20.66
2018-06-21T16:19:08.474Z,22.03
2018-06-21T16:21:37.566Z,20.61
2018-06-21T16:24:06.573Z,19.82
2018-06-21T16:26:35.580Z,20.15
2018-06-21T16:29:04.590Z,21.06
2018-06-21T16:31:33.583Z,20.12
2018-06-21T16:34:02.582Z,20.21
2018-06-21T16:36:31.573Z,20.92
2018-06-21T16:39:00.521Z,20.63
2018-06-21T16:41:29.603Z,20.71
2018-06-21T16:43:58.530Z,20.92
2018-06-21T16:46:27.576Z,21.40
2018-06-21T16:48:56.613Z,21.75
2018-06-21T16:51:25.705Z,21.07
2018-06-21T16:53:54.644Z,21.38
2018-06-21T16:56:23.647Z,21.75
2018-06-21T16:58:52.607Z,21.85
2018-06-21T17:01:21.602Z,21.87
2018-06-21T17:03:50.595Z,23.09
2018-06-21T17:06:19.557Z,23.49
2018-06-21T17:08:48.574Z,22.99
2018-06-21T17:11:17.507Z,22.87
2018-06-21T17:13:46.497Z,22.84
2018-06-21T17:16:15.486Z,22.56
2018-06-21T17:18:44.562Z,23.53
2018-06-21T17:21:13.519Z,24.24
2018-06-21T17:23:42.557Z,24.09
2018-06-21T17:26:11.739Z,24.43
2018-06-21T17:28:40.730Z,24.71
2018-06-21T17:31:09.687Z,23.90
2018-06-21T17:33:38.848Z,24.27
2018-06-21T17:36:07.869Z,24.02
2018-06-21T17:38:36.890Z,23.80
2018-06-21T17:41:05.898Z,23.97
2018-06-21T17:43:34.903Z,24.26
2018-06-21T17:46:03.848Z,24.08
2018-06-21T17:48:32.831Z,23.81
2018-06-21T17:51:01.791Z,24.16
2018-06-21T17:53:30.750Z,24.44
2018-06-21T17:55:59.806Z,24.36
2018-06-21T17:58:28.733Z,24.20
2018-06-21T18:00:57.866Z,24.23
2018-06-21T18:03:26.853Z,25.18
2018-06-21T18:05:55.850Z,24.30
2018-06-21T18:08:24.806Z,24.77
2018-06-21T18:10:53.794Z,25.28
2018-06-21T18:13:22.802Z,24.64
2018-06-21T18:15:51.815Z,24.97
2018-06-21T18:18:20.775Z,25.31
2018-06-21T18:20:49.775Z,25.23
2018-06-21T18:23:18.752Z,25.95
2018-06-21T18:25:47.726Z,25.61
2018-06-21T18:28:16.690Z,26.12
2018-06-21T18:30:45.854Z,25.61
2018-06-21T18:33:14.835Z,26.08
2018-06-21T18:35:43.867Z,26.58
2018-06-21T18:38:12.870Z,27.51
2018-06-21T18:40:41.847Z,27.02
2018-06-21T18:43:10.809Z,27.17
2018-06-21T18:45:39.797Z,27.02
2018-06-21T18:48:08.748Z,26.70
2018-06-21T18:50:37.743Z,26.59
2018-06-21T18:53:06.718Z,26.70
2018-06-21T18:55:35.739Z,26.87
2018-06-21T18:58:04.694Z,26.96
2018-06-21T19:00:33.662Z,27.08
2018-06-21T19:03:02.664Z,28.08
2018-06-21T19:05:31.643Z,28.17
2018-06-21T19:08:05.721Z,28.04
2018-06-21T19:10:39.802Z,28.37
2018-06-21T19:13:08.864Z,28.59
2018-06-21T19:15:37.842Z,28.53
2018-06-21T19:18:06.853Z,29.69
2018-06-21T19:20:35.853Z,29.07
2018-06-21T19:23:04.873Z,29.85
2018-06-21T19:25:33.885Z,29.98
2018-06-21T19:28:02.851Z,30.29
2018-06-21T19:30:31.799Z,30.49
2018-06-21T19:33:00.806Z,30.29
2018-06-21T19:35:29.740Z,30.82
2018-06-21T19:37:58.740Z,31.01
2018-06-21T19:40:27.699Z,30.39
2018-06-21T19:42:56.761Z,30.34
2018-06-21T19:45:26.082Z,30.34
2018-06-21T19:47:55.816Z,29.82
2018-06-21T19:50:25.305Z,30.14
2018-06-21T19:52:54.709Z,30.98
2018-06-21T19:55:23.780Z,30.51
2018-06-21T19:57:52.803Z,30.78
2018-06-21T20:00:21.817Z,30.68
2018-06-21T20:02:55.870Z,30.40
2018-06-21T20:05:24.871Z,30.78
2018-06-21T20:07:53.872Z,30.77
2018-06-21T20:10:22.811Z,31.14
2018-06-21T20:12:51.830Z,31.19
2018-06-21T20:15:20.871Z,31.05
2018-06-21T20:17:49.811Z,31.54
2018-06-21T20:20:23.897Z,31.32
2018-06-21T20:22:52.872Z,31.33
2018-06-21T20:25:21.887Z,32.33
2018-06-21T20:27:50.822Z,32.07
2018-06-21T20:30:19.821Z,32.31
2018-06-21T20:32:48.764Z,32.11
2018-06-21T20:35:17.947Z,32.49
2018-06-21T20:37:46.889Z,32.85
2018-06-21T20:40:15.894Z,33.13
2018-06-21T20:42:44.840Z,33.50
2018-06-21T20:45:13.822Z,32.83
2018-06-21T20:47:42.770Z,33.42
2018-06-21T20:50:11.757Z,34.15
2018-06-21T20:52:40.790Z,34.50
2018-06-21T20:55:09.815Z,33.91
2018-06-21T20:57:38.770Z,34.16
2018-06-21T21:00:07.774Z,34.02
2018-06-21T21:02:36.746Z,34.15
2018-06-21T21:05:11.813Z,34.24
2018-06-21T21:07:40.987Z,34.21
2018-06-21T21:10:11.229Z,34.57
2018-06-21T21:12:40.603Z,34.62
2018-06-21T21:15:10.613Z,34.64
2018-06-21T21:17:39.581Z,35.54
2018-06-21T21:20:09.104Z,35.79
2018-06-21T21:22:39.062Z,36.10
2018-06-21T21:25:08.095Z,35.97
2018-06-21T21:27:37.145Z,35.85
2018-06-21T21:30:07.578Z,36.10
2018-06-21T21:32:36.593Z,36.54
2018-06-21T21:35:05.669Z,36.52
2018-06-21T21:37:34.678Z,36.60
2018-06-21T21:40:05.708Z,37.74
2018-06-21T21:42:36.068Z,37.97
2018-06-21T21:45:05.031Z,38.37
2018-06-21T21:47:34.063Z,38.73
2018-06-21T21:50:03.061Z,38.80
2018-06-21T21:52:32.107Z,39.77
2018-06-21T21:55:01.098Z,40.14
2018-06-21T21:57:30.113Z,39.01
2018-06-21T21:59:59.073Z,39.52
2018-06-21T22:02:28.174Z,39.61
2018-06-21T22:04:57.124Z,40.52
2018-06-21T22:07:26.150Z,40.31
2018-06-21T22:09:55.113Z,40.36
2018-06-21T22:12:24.111Z,40.57
2018-06-21T22:14:53.086Z,40.67
2018-06-21T22:17:22.100Z,40.43
2018-06-21T22:19:51.093Z,39.95
2018-06-21T22:22:20.103Z,39.84
2018-06-21T22:24:49.071Z,39.75
2018-06-21T22:27:18.048Z,39.69
2018-06-21T22:29:46.981Z,40.99
2018-06-21T22:32:15.994Z,40.55
2018-06-21T22:34:44.994Z,40.94
2018-06-21T22:37:14.050Z,41.15
2018-06-21T22:39:43.015Z,41.37
2018-06-21T22:42:12.023Z,41.06
2018-06-21T22:44:41.034Z,41.30
2018-06-21T22:47:10.041Z,41.53
2018-06-21T22:49:38.999Z,42.00
2018-06-21T22:52:08.247Z,41.81
2018-06-21T22:54:37.207Z,43.15
2018-06-21T22:57:06.200Z,42.32
2018-06-21T22:59:35.174Z,42.73
2018-06-21T23:02:04.167Z,42.04
2018-06-21T23:04:33.194Z,41.44
2018-06-21T23:07:02.169Z,40.95
2018-06-21T23:09:31.177Z,41.18
2018-06-21T23:12:00.152Z,42.05
2018-06-21T23:14:29.155Z,42.23
2018-06-21T23:16:58.877Z,43.17
2018-06-21T23:19:30.288Z,42.95
2018-06-21T23:21:59.933Z,42.59
2018-06-21T23:24:28.950Z,42.95
2018-06-21T23:26:57.943Z,42.60
2018-06-21T23:29:26.940Z,42.58
2018-06-21T23:31:55.927Z,44.27
2018-06-21T23:34:24.938Z,43.81
2018-06-21T23:36:53.907Z,43.48
2018-06-21T23:39:22.924Z,42.96
2018-06-21T23:41:51.917Z,43.48
2018-06-21T23:44:20.910Z,45.18
2018-06-21T23:46:49.876Z,44.03
2018-06-21T23:49:18.870Z,43.68
2018-06-21T23:51:47.843Z,43.72
2018-06-21T23:54:16.932Z,43.40
2018-06-21T23:56:45.990Z,43.84
2018-06-21T23:59:15.006Z,45.81
